Time;durP1;ratioP1;P1;durP2;ratioP2;P2;SDS_P1;SDS_P2;PMS_P1;PMS_P2;Temp;Humidity;BMP_temperature;BMP_pressure;BME280_temperature;BME280_humidity;BME280_pressure;Samples;Min_cycle;Max_cycle;Signal;HPM_P1;HPM_P2
2022/01/17 00:01:00;;;;;;;22.21;10.12;;;;;;;;;;365007;146;857483;-62
2022/01/17 00:02:03;;;;;;;13.41;7.29;;;;;;;;;;363721;146;866066;-62
2022/01/17 00:03:05;;;;;;;20.32;9.56;;;;;;;;;;365331;146;857343;-62
2022/01/17 00:04:10;;;;;;;21.66;10.08;;;;;;;;;;360129;146;857660;-61
2022/01/17 00:05:11;;;;;;;16.44;8.73;;;;;;;;;;364466;146;858176;-62
2022/01/17 00:06:14;;;;;;;15.71;8.84;;;;;;;;;;360184;146;858105;-62
2022/01/17 00:07:16;;;;;;;22.22;9.77;;;;;;;;;;361349;146;858211;-62
2022/01/17 00:08:17;;;;;;;15.29;7.96;;;;;;;;;;358806;146;857245;-62
2022/01/17 00:09:20;;;;;;;15.47;7.49;;;;;;;;;;359504;145;857317;-62
2022/01/17 00:10:23;;;;;;;21.44;10.60;;;;;;;;;;356606;148;865134;-62
2022/01/17 00:11:24;;;;;;;18.67;8.68;;;;;;;;;;359092;146;864874;-62
2022/01/17 00:12:27;;;;;;;34.26;9.98;;;;;;;;;;361239;146;858902;-62
2022/01/17 00:13:29;;;;;;;22.47;10.95;;;;;;;;;;360425;148;857809;-62
2022/01/17 00:14:38;;;;;;;21.40;8.73;;;;;;;;;;360305;148;858167;-62
2022/01/17 00:15:46;;;;;;;16.72;8.86;;;;;;;;;;357440;146;865733;-62
2022/01/17 00:16:43;;;;;;;17.19;7.83;;;;;;;;;;357371;148;865507;-62
2022/01/17 00:17:44;;;;;;;16.70;6.93;;;;;;;;;;357883;146;865407;-62
2022/01/17 00:19:48;;;;;;;17.38;7.79;;;;;;;;;;362215;146;857626;-62
2022/01/17 00:20:50;;;;;;;13.02;7.51;;;;;;;;;;360520;146;858357;-62
2022/01/17 00:21:51;;;;;;;22.49;9.42;;;;;;;;;;358300;146;865038;-62
2022/01/17 00:22:53;;;;;;;16.84;7.82;;;;;;;;;;358968;145;858214;-62
2022/01/17 00:23:55;;;;;;;20.71;8.92;;;;;;;;;;360216;147;857284;-63
2022/01/17 00:24:57;;;;;;;18.90;6.89;;;;;;;;;;360699;146;864984;-62
2022/01/17 00:25:58;;;;;;;21.63;9.94;;;;;;;;;;358450;146;860129;-62
2022/01/17 00:27:00;;;;;;;22.60;10.19;;;;;;;;;;361627;145;860042;-62
2022/01/17 00:28:02;;;;;;;19.77;7.83;;;;;;;;;;357734;146;859024;-62
2022/01/17 00:29:04;;;;;;;15.37;7.78;;;;;;;;;;360029;146;857797;-62
2022/01/17 00:30:09;;;;;;;15.68;7.96;;;;;;;;;;362122;146;866821;-62
2022/01/17 00:31:10;;;;;;;13.76;7.34;;;;;;;;;;358573;146;857255;-62
2022/01/17 00:32:12;;;;;;;17.64;6.01;;;;;;;;;;359268;146;857785;-62
2022/01/17 00:33:14;;;;;;;20.07;7.78;;;;;;;;;;359098;146;864935;-63
2022/01/17 00:34:16;;;;;;;15.80;8.22;;;;;;;;;;360792;146;858306;-62
2022/01/17 00:35:18;;;;;;;14.93;7.32;;;;;;;;;;358540;148;864968;-62
2022/01/17 00:36:21;;;;;;;14.48;7.62;;;;;;;;;;360829;146;859332;-61
2022/01/17 00:37:23;;;;;;;16.12;7.46;;;;;;;;;;360918;146;857146;-62
2022/01/17 00:38:25;;;;;;;15.85;8.70;;;;;;;;;;357682;148;864975;-62
2022/01/17 00:39:26;;;;;;;17.40;7.36;;;;;;;;;;359688;146;864933;-62
2022/01/17 00:40:28;;;;;;;20.49;9.27;;;;;;;;;;359254;145;864951;-62
2022/01/17 00:41:30;;;;;;;20.19;9.12;;;;;;;;;;364584;146;857212;-62
2022/01/17 00:42:32;;;;;;;13.50;6.95;;;;;;;;;;357138;146;866571;-62
2022/01/17 00:43:35;;;;;;;19.27;8.92;;;;;;;;;;363136;145;863966;-62
2022/01/17 00:44:36;;;;;;;21.31;10.87;;;;;;;;;;362044;144;857593;-62
2022/01/17 00:45:40;;;;;;;24.33;10.00;;;;;;;;;;357268;146;857153;-62
2022/01/17 00:46:42;;;;;;;18.40;8.29;;;;;;;;;;360283;146;857156;-62
2022/01/17 00:47:45;;;;;;;16.29;6.77;;;;;;;;;;361728;145;859218;-62
2022/01/17 00:48:47;;;;;;;20.53;9.74;;;;;;;;;;361823;146;865033;-61
2022/01/17 00:49:49;;;;;;;15.47;7.89;;;;;;;;;;361483;146;857644;-64
2022/01/17 00:50:51;;;;;;;15.18;7.92;;;;;;;;;;359265;146;866954;-62
2022/01/17 00:51:52;;;;;;;20.36;8.23;;;;;;;;;;357694;146;858260;-62
2022/01/17 00:52:54;;;;;;;17.51;7.15;;;;;;;;;;359491;148;864786;-62
2022/01/17 00:53:56;;;;;;;13.66;7.25;;;;;;;;;;357392;146;865173;-62
2022/01/17 00:54:58;;;;;;;14.59;7.13;;;;;;;;;;360714;146;857173;-62
2022/01/17 00:56:00;;;;;;;17.52;8.67;;;;;;;;;;362969;146;864944;-62
2022/01/17 00:57:02;;;;;;;17.66;9.24;;;;;;;;;;360855;146;858180;-62
2022/01/17 00:58:04;;;;;;;12.96;7.64;;;;;;;;;;363797;146;865060;-62
2022/01/17 00:59:06;;;;;;;20.35;10.95;;;;;;;;;;360598;147;857224;-62
2022/01/17 01:00:09;;;;;;;19.61;8.55;;;;;;;;;;361175;148;865881;-61
2022/01/17 01:01:10;;;;;;;20.75;10.01;;;;;;;;;;359343;146;858161;-62
2022/01/17 01:02:12;;;;;;;23.23;8.92;;;;;;;;;;361698;146;857265;-62
2022/01/17 01:03:14;;;;;;;18.25;9.27;;;;;;;;;;361581;146;858941;-62
2022/01/17 01:04:16;;;;;;;17.85;8.58;;;;;;;;;;358937;146;857359;-62
2022/01/17 01:05:18;;;;;;;22.33;10.11;;;;;;;;;;358607;145;857770;-62
2022/01/17 01:06:21;;;;;;;25.04;9.41;;;;;;;;;;359286;146;863164;-62
2022/01/17 01:07:23;;;;;;;19.23;9.61;;;;;;;;;;360821;146;857465;-62
2022/01/17 01:08:24;;;;;;;20.77;9.34;;;;;;;;;;357531;146;867204;-63
2022/01/17 01:09:31;;;;;;;12.06;7.71;;;;;;;;;;362716;146;859202;-62
2022/01/17 01:10:30;;;;;;;18.12;10.42;;;;;;;;;;356323;146;865098;-62
2022/01/17 01:11:31;;;;;;;17.97;7.95;;;;;;;;;;358883;146;857786;-62
2022/01/17 01:12:33;;;;;;;18.08;8.35;;;;;;;;;;359372;145;860447;-62
2022/01/17 01:13:35;;;;;;;16.53;8.13;;;;;;;;;;358570;148;857298;-64
2022/01/17 01:14:40;;;;;;;20.14;8.96;;;;;;;;;;359418;146;862563;-62
2022/01/17 01:16:45;;;;;;;12.94;7.32;;;;;;;;;;362199;143;858387;-62
2022/01/17 01:17:50;;;;;;;13.76;6.33;;;;;;;;;;357035;147;861194;-62
2022/01/17 01:20:03;;;;;;;19.39;9.72;;;;;;;;;;357767;147;865857;-63
2022/01/17 01:27:53;;;;;;;14.96;8.17;;;;;;;;;;356447;148;857253;-63
2022/01/17 01:28:44;;;;;;;18.51;8.47;;;;;;;;;;354731;148;865948;-63
2022/01/17 01:29:48;;;;;;;23.83;9.94;;;;;;;;;;356224;148;858702;-64
2022/01/17 01:30:52;;;;;;;13.58;6.47;;;;;;;;;;356384;149;865381;-63
2022/01/17 01:31:58;;;;;;;15.28;7.19;;;;;;;;;;357485;148;865957;-63
2022/01/17 01:32:58;;;;;;;18.29;8.10;;;;;;;;;;352767;147;859533;-63
2022/01/17 01:34:04;;;;;;;12.81;7.34;;;;;;;;;;354800;150;865093;-64
2022/01/17 01:35:09;;;;;;;12.33;6.77;;;;;;;;;;352553;150;859081;-64
2022/01/17 01:36:13;;;;;;;18.89;7.82;;;;;;;;;;355005;148;858615;-63
2022/01/17 01:37:11;;;;;;;17.57;8.17;;;;;;;;;;355055;150;857192;-63
2022/01/17 01:38:13;;;;;;;13.00;7.76;;;;;;;;;;356129;150;865679;-63
2022/01/17 01:39:23;;;;;;;21.39;9.30;;;;;;;;;;355085;148;859289;-63
2022/01/17 01:40:22;;;;;;;12.71;6.38;;;;;;;;;;353021;149;866639;-63
2022/01/17 01:41:24;;;;;;;27.24;10.42;;;;;;;;;;356615;150;859285;-63
2022/01/17 01:42:28;;;;;;;24.88;7.44;;;;;;;;;;356041;148;866877;-64
2022/01/17 01:43:29;;;;;;;19.03;7.06;;;;;;;;;;354042;147;865405;-63
2022/01/17 01:44:31;;;;;;;21.93;9.61;;;;;;;;;;354012;150;865865;-63
2022/01/17 01:45:32;;;;;;;23.54;10.01;;;;;;;;;;355335;150;866738;-63
2022/01/17 01:46:34;;;;;;;14.11;7.11;;;;;;;;;;352653;147;864702;-64
2022/01/17 01:47:36;;;;;;;27.46;9.21;;;;;;;;;;357029;148;857163;-63
2022/01/17 01:48:37;;;;;;;16.03;8.55;;;;;;;;;;356058;148;865308;-63
2022/01/17 01:49:39;;;;;;;20.29;9.14;;;;;;;;;;353172;148;865012;-63
2022/01/17 01:50:41;;;;;;;16.68;8.05;;;;;;;;;;354877;147;864953;-63
2022/01/17 01:51:43;;;;;;;18.73;8.31;;;;;;;;;;356887;148;859967;-62
2022/01/17 01:52:44;;;;;;;16.86;8.79;;;;;;;;;;357251;150;858683;-62
2022/01/17 01:53:46;;;;;;;22.87;10.27;;;;;;;;;;355460;148;865823;-62
2022/01/17 01:54:47;;;;;;;22.52;9.52;;;;;;;;;;354948;150;866679;-62
2022/01/17 01:55:53;;;;;;;30.33;11.12;;;;;;;;;;354501;150;859261;-62
2022/01/17 01:56:55;;;;;;;17.33;8.17;;;;;;;;;;353268;148;858276;-62
2022/01/17 01:57:57;;;;;;;17.32;9.04;;;;;;;;;;350090;150;857802;-63
2022/01/17 01:58:58;;;;;;;12.20;6.76;;;;;;;;;;350675;150;865008;-63
2022/01/17 02:00:01;;;;;;;16.21;8.34;;;;;;;;;;355249;147;866725;-62
2022/01/17 02:01:03;;;;;;;18.18;8.38;;;;;;;;;;353424;148;862260;-62
2022/01/17 02:02:05;;;;;;;16.33;8.39;;;;;;;;;;356433;150;865146;-62
2022/01/17 02:03:06;;;;;;;18.79;6.47;;;;;;;;;;356593;150;864843;-62
2022/01/17 02:04:08;;;;;;;17.45;7.52;;;;;;;;;;355380;148;857277;-62
2022/01/17 02:05:10;;;;;;;14.95;6.74;;;;;;;;;;354133;150;865374;-62
2022/01/17 02:06:13;;;;;;;21.18;9.23;;;;;;;;;;354919;150;857285;-62
2022/01/17 02:07:15;;;;;;;15.53;6.98;;;;;;;;;;356557;148;857632;-62
2022/01/17 02:08:17;;;;;;;15.67;7.07;;;;;;;;;;355399;148;858102;-62
2022/01/17 02:09:19;;;;;;;22.30;10.75;;;;;;;;;;354991;148;857375;-63
2022/01/17 02:10:21;;;;;;;20.75;9.55;;;;;;;;;;352991;148;857329;-62
2022/01/17 02:11:23;;;;;;;26.15;8.88;;;;;;;;;;355115;148;857313;-65
2022/01/17 02:12:29;;;;;;;18.03;7.75;;;;;;;;;;355284;148;865247;-62
2022/01/17 02:13:30;;;;;;;11.61;7.15;;;;;;;;;;351022;152;857255;-63
2022/01/17 02:14:32;;;;;;;22.29;10.84;;;;;;;;;;345485;156;857386;-62
2022/01/17 02:15:34;;;;;;;16.19;8.13;;;;;;;;;;345316;153;864699;-62
2022/01/17 02:16:38;;;;;;;13.75;8.05;;;;;;;;;;349683;150;865816;-62
2022/01/17 02:17:45;;;;;;;13.31;7.59;;;;;;;;;;358508;148;859575;-63
2022/01/17 02:18:44;;;;;;;13.04;7.34;;;;;;;;;;354981;147;863270;-63
2022/01/17 02:19:47;;;;;;;16.09;7.39;;;;;;;;;;353536;150;858607;-63
2022/01/17 02:21:10;;;;;;;19.98;8.76;;;;;;;;;;352931;150;857281;-63
2022/01/17 02:21:53;;;;;;;15.76;7.68;;;;;;;;;;343397;152;865038;-63
2022/01/17 02:22:55;;;;;;;17.94;9.06;;;;;;;;;;342293;153;858838;-63
2022/01/17 02:23:57;;;;;;;23.17;9.57;;;;;;;;;;345479;152;864553;-63
2022/01/17 02:24:58;;;;;;;18.20;7.86;;;;;;;;;;348330;154;858858;-63
2022/01/17 02:26:01;;;;;;;18.11;9.29;;;;;;;;;;347635;152;861675;-63
2022/01/17 02:27:02;;;;;;;22.76;9.87;;;;;;;;;;346194;153;857256;-63
2022/01/17 02:28:04;;;;;;;19.35;9.65;;;;;;;;;;344232;154;857197;-62
2022/01/17 02:29:06;;;;;;;16.84;7.68;;;;;;;;;;345110;152;856980;-62
2022/01/17 02:30:10;;;;;;;21.84;8.99;;;;;;;;;;344418;152;860254;-63
2022/01/17 02:31:12;;;;;;;12.58;7.44;;;;;;;;;;346031;151;857686;-62
2022/01/17 02:32:14;;;;;;;19.50;9.04;;;;;;;;;;344038;152;857295;-62
2022/01/17 02:33:15;;;;;;;20.40;9.49;;;;;;;;;;346703;152;866912;-63
2022/01/17 02:34:17;;;;;;;19.44;9.70;;;;;;;;;;347358;153;865126;-63
2022/01/17 02:35:22;;;;;;;19.33;7.87;;;;;;;;;;344878;153;864778;-62
2022/01/17 02:36:25;;;;;;;23.78;9.79;;;;;;;;;;345567;151;864992;-63
2022/01/17 02:37:27;;;;;;;18.56;8.33;;;;;;;;;;348385;150;857283;-62
2022/01/17 02:38:28;;;;;;;20.03;9.19;;;;;;;;;;333289;158;860366;-63
2022/01/17 02:39:30;;;;;;;21.83;10.97;;;;;;;;;;342002;153;857396;-63
2022/01/17 02:40:32;;;;;;;23.84;10.67;;;;;;;;;;348673;150;857279;-63
2022/01/17 02:41:35;;;;;;;18.18;9.62;;;;;;;;;;348914;150;856077;-63
2022/01/17 02:42:37;;;;;;;18.21;10.01;;;;;;;;;;345853;154;864804;-62
2022/01/17 02:43:39;;;;;;;21.89;9.61;;;;;;;;;;348018;151;859147;-63
2022/01/17 02:44:45;;;;;;;16.61;7.86;;;;;;;;;;346275;152;857623;-63
2022/01/17 02:46:55;;;;;;;20.63;8.73;;;;;;;;;;347563;151;857742;-63
2022/01/17 02:47:58;;;;;;;16.13;9.03;;;;;;;;;;347564;152;857232;-62
2022/01/17 02:49:00;;;;;;;19.88;8.21;;;;;;;;;;346739;152;859616;-63
2022/01/17 02:50:02;;;;;;;24.24;8.77;;;;;;;;;;345931;153;865946;-63
2022/01/17 02:51:04;;;;;;;24.68;9.19;;;;;;;;;;343942;153;857603;-63
2022/01/17 02:52:06;;;;;;;18.76;7.99;;;;;;;;;;349213;151;857218;-63
2022/01/17 02:53:09;;;;;;;19.69;8.37;;;;;;;;;;349460;151;864931;-63
2022/01/17 02:54:10;;;;;;;17.19;8.85;;;;;;;;;;349257;150;858259;-63
2022/01/17 02:55:12;;;;;;;17.16;7.71;;;;;;;;;;348049;152;864860;-63
2022/01/17 02:56:15;;;;;;;18.62;9.11;;;;;;;;;;351386;151;865372;-63
2022/01/17 02:57:16;;;;;;;16.46;7.86;;;;;;;;;;354923;150;866150;-63
2022/01/17 02:58:19;;;;;;;19.48;8.78;;;;;;;;;;349287;152;865005;-63
2022/01/17 02:59:21;;;;;;;21.37;8.75;;;;;;;;;;349718;150;857237;-63
2022/01/17 03:00:25;;;;;;;17.29;9.14;;;;;;;;;;350861;153;857245;-62
2022/01/17 03:01:27;;;;;;;18.02;9.80;;;;;;;;;;348781;150;857674;-62
2022/01/17 03:02:31;;;;;;;13.65;7.87;;;;;;;;;;347652;152;857811;-62
2022/01/17 03:03:33;;;;;;;17.83;7.75;;;;;;;;;;348105;152;857379;-64
2022/01/17 03:04:35;;;;;;;19.35;9.14;;;;;;;;;;349871;151;857260;-63
2022/01/17 03:05:36;;;;;;;20.16;9.00;;;;;;;;;;343993;153;865027;-63
2022/01/17 03:06:38;;;;;;;14.91;7.19;;;;;;;;;;348376;151;866658;-63
2022/01/17 03:07:40;;;;;;;18.49;8.00;;;;;;;;;;349433;154;864956;-63
2022/01/17 03:08:41;;;;;;;18.86;9.34;;;;;;;;;;347206;152;865911;-63
2022/01/17 03:09:58;;;;;;;11.65;6.59;;;;;;;;;;343415;153;860023;-64
2022/01/17 03:10:47;;;;;;;18.08;7.89;;;;;;;;;;346024;154;859274;-63
2022/01/17 03:11:49;;;;;;;23.48;10.50;;;;;;;;;;347937;152;866330;-62
2022/01/17 03:12:50;;;;;;;28.29;9.50;;;;;;;;;;343770;152;866643;-63
2022/01/17 03:13:52;;;;;;;14.59;7.39;;;;;;;;;;348000;151;857270;-63
2022/01/17 03:14:54;;;;;;;20.71;9.88;;;;;;;;;;344571;154;866446;-64
2022/01/17 03:15:58;;;;;;;12.46;5.45;;;;;;;;;;344902;152;859108;-63
2022/01/17 03:17:08;;;;;;;19.67;9.82;;;;;;;;;;344570;153;857282;-63
2022/01/17 03:18:09;;;;;;;16.58;7.37;;;;;;;;;;346070;153;857381;-64
2022/01/17 03:19:11;;;;;;;26.80;10.54;;;;;;;;;;345754;151;857666;-63
2022/01/17 03:20:13;;;;;;;17.84;9.39;;;;;;;;;;344886;153;865435;-63
2022/01/17 03:21:16;;;;;;;20.60;9.65;;;;;;;;;;346185;152;857168;-63
2022/01/17 03:22:18;;;;;;;24.31;9.91;;;;;;;;;;347163;151;857288;-63
2022/01/17 03:23:20;;;;;;;20.15;8.18;;;;;;;;;;344123;152;857351;-63
2022/01/17 03:24:21;;;;;;;13.33;6.90;;;;;;;;;;345695;154;865468;-63
2022/01/17 03:25:24;;;;;;;22.27;9.49;;;;;;;;;;342659;154;857234;-63
2022/01/17 03:26:29;;;;;;;24.51;9.39;;;;;;;;;;336783;158;861855;-63
2022/01/17 03:27:30;;;;;;;18.57;9.18;;;;;;;;;;344379;150;858243;-63
2022/01/17 03:28:32;;;;;;;17.11;7.26;;;;;;;;;;356789;148;866683;-63
2022/01/17 03:29:34;;;;;;;14.31;6.63;;;;;;;;;;344237;153;864738;-62
2022/01/17 03:30:36;;;;;;;24.77;10.23;;;;;;;;;;345301;150;857392;-62
2022/01/17 03:31:39;;;;;;;18.63;8.57;;;;;;;;;;354810;148;857316;-63
2022/01/17 03:32:41;;;;;;;15.76;6.72;;;;;;;;;;347222;152;866224;-63
2022/01/17 03:33:43;;;;;;;14.45;6.81;;;;;;;;;;349226;150;865178;-62
2022/01/17 03:34:45;;;;;;;18.25;8.77;;;;;;;;;;353146;150;866186;-62
2022/01/17 03:35:48;;;;;;;19.28;9.06;;;;;;;;;;349741;150;860146;-63
2022/01/17 03:36:49;;;;;;;21.99;8.16;;;;;;;;;;345938;150;859317;-64
2022/01/17 03:37:51;;;;;;;22.94;11.46;;;;;;;;;;352999;150;865720;-63
2022/01/17 03:38:54;;;;;;;32.71;10.71;;;;;;;;;;355605;148;865002;-63
2022/01/17 03:39:55;;;;;;;23.36;10.68;;;;;;;;;;357141;148;866305;-63
2022/01/17 03:40:58;;;;;;;26.37;10.84;;;;;;;;;;354488;148;859613;-63
2022/01/17 03:42:00;;;;;;;23.05;10.74;;;;;;;;;;353995;150;865590;-63
2022/01/17 03:43:02;;;;;;;24.27;11.11;;;;;;;;;;354004;150;857204;-63
2022/01/17 03:44:04;;;;;;;23.97;8.69;;;;;;;;;;353996;148;864730;-63
2022/01/17 03:45:09;;;;;;;22.55;9.41;;;;;;;;;;355250;148;857223;-63
2022/01/17 03:46:12;;;;;;;27.61;10.91;;;;;;;;;;354147;148;857195;-63
2022/01/17 03:47:14;;;;;;;26.62;10.96;;;;;;;;;;353627;148;857112;-63
2022/01/17 03:48:16;;;;;;;22.36;10.72;;;;;;;;;;353799;148;864742;-63
2022/01/17 03:49:18;;;;;;;22.53;10.21;;;;;;;;;;353902;150;864708;-63
2022/01/17 03:50:21;;;;;;;15.87;8.26;;;;;;;;;;354750;148;857297;-63
2022/01/17 03:51:22;;;;;;;12.52;7.00;;;;;;;;;;354040;148;858948;-63
2022/01/17 03:52:24;;;;;;;17.01;8.82;;;;;;;;;;356045;148;858975;-64
2022/01/17 03:53:26;;;;;;;19.20;8.90;;;;;;;;;;356176;148;865907;-63
2022/01/17 03:54:27;;;;;;;13.58;6.89;;;;;;;;;;352313;148;865992;-63
2022/01/17 03:55:32;;;;;;;15.81;6.33;;;;;;;;;;356171;147;858651;-63
2022/01/17 03:56:33;;;;;;;22.91;9.45;;;;;;;;;;356428;148;866670;-63
2022/01/17 03:57:35;;;;;;;13.18;6.79;;;;;;;;;;357796;148;859150;-64
2022/01/17 03:58:36;;;;;;;17.02;7.99;;;;;;;;;;358104;148;864892;-64
2022/01/17 03:59:38;;;;;;;22.70;7.96;;;;;;;;;;355751;149;866190;-63
2022/01/17 04:00:41;;;;;;;15.99;8.17;;;;;;;;;;355329;148;865602;-63
2022/01/17 04:01:42;;;;;;;18.36;8.79;;;;;;;;;;354269;148;865075;-62
2022/01/17 04:02:44;;;;;;;17.64;7.92;;;;;;;;;;356104;148;865175;-62
2022/01/17 04:03:46;;;;;;;15.28;7.99;;;;;;;;;;356035;148;865039;-63
2022/01/17 04:04:48;;;;;;;15.47;6.99;;;;;;;;;;352639;150;865848;-63
2022/01/17 04:05:49;;;;;;;15.55;7.91;;;;;;;;;;355688;147;859819;-63
2022/01/17 04:06:51;;;;;;;15.77;7.78;;;;;;;;;;355905;148;865118;-63
2022/01/17 04:07:53;;;;;;;16.69;7.05;;;;;;;;;;356285;148;858780;-62
2022/01/17 04:08:55;;;;;;;22.58;8.91;;;;;;;;;;355090;148;859992;-62
2022/01/17 04:09:57;;;;;;;13.59;6.14;;;;;;;;;;354492;148;865888;-63
2022/01/17 04:10:59;;;;;;;17.62;8.49;;;;;;;;;;355519;148;865905;-62
2022/01/17 04:12:00;;;;;;;19.43;7.39;;;;;;;;;;356369;150;857314;-62
2022/01/17 04:13:04;;;;;;;15.88;6.48;;;;;;;;;;354527;147;865868;-63
2022/01/17 04:14:07;;;;;;;19.17;8.24;;;;;;;;;;353806;150;864944;-64
2022/01/17 04:15:09;;;;;;;20.85;8.48;;;;;;;;;;356279;148;857571;-64
2022/01/17 04:16:12;;;;;;;18.67;10.38;;;;;;;;;;354320;148;857225;-63
2022/01/17 04:17:14;;;;;;;20.15;8.81;;;;;;;;;;353869;148;857755;-64
2022/01/17 04:18:22;;;;;;;17.52;6.37;;;;;;;;;;357017;147;857387;-64
2022/01/17 04:19:20;;;;;;;19.07;8.60;;;;;;;;;;355473;148;860223;-64
2022/01/17 04:20:27;;;;;;;16.44;8.42;;;;;;;;;;354504;148;858906;-63
2022/01/17 04:21:33;;;;;;;18.70;9.19;;;;;;;;;;353897;148;861084;-63
2022/01/17 04:22:35;;;;;;;25.31;8.33;;;;;;;;;;351967;150;856964;-63
2022/01/17 04:23:36;;;;;;;15.39;8.76;;;;;;;;;;354289;148;863549;-63
2022/01/17 04:24:38;;;;;;;18.23;9.01;;;;;;;;;;355210;150;858225;-64
2022/01/17 04:25:40;;;;;;;13.39;6.96;;;;;;;;;;356348;148;857743;-64
2022/01/17 04:26:42;;;;;;;13.43;6.26;;;;;;;;;;355520;148;866517;-63
2022/01/17 04:27:44;;;;;;;22.70;9.43;;;;;;;;;;353047;150;857201;-63
2022/01/17 04:28:46;;;;;;;19.79;8.85;;;;;;;;;;359113;148;857375;-63
2022/01/17 04:29:50;;;;;;;16.00;8.23;;;;;;;;;;344505;153;857361;-63
2022/01/17 04:30:53;;;;;;;20.67;8.26;;;;;;;;;;332862;159;860175;-63
2022/01/17 04:31:54;;;;;;;14.65;7.17;;;;;;;;;;348555;151;865194;-63
2022/01/17 04:32:56;;;;;;;22.35;8.95;;;;;;;;;;356236;149;867592;-63
2022/01/17 04:33:58;;;;;;;20.03;7.78;;;;;;;;;;355063;148;859286;-63
2022/01/17 04:34:59;;;;;;;16.36;7.09;;;;;;;;;;355015;148;857252;-63
2022/01/17 04:36:06;;;;;;;14.97;6.67;;;;;;;;;;356792;148;863784;-63
2022/01/17 04:37:07;;;;;;;13.55;7.18;;;;;;;;;;354814;149;859798;-63
2022/01/17 04:38:09;;;;;;;15.33;8.94;;;;;;;;;;353756;149;858894;-63
2022/01/17 04:39:15;;;;;;;18.64;8.73;;;;;;;;;;355325;148;865006;-63
2022/01/17 04:40:15;;;;;;;17.38;7.41;;;;;;;;;;354512;147;857673;-63
2022/01/17 04:41:18;;;;;;;16.41;7.72;;;;;;;;;;355376;147;858842;-63
2022/01/17 04:42:27;;;;;;;23.50;9.14;;;;;;;;;;353822;150;865330;-63
2022/01/17 04:43:55;;;;;;;15.76;8.12;;;;;;;;;;356317;148;858190;-63
2022/01/17 04:45:57;;;;;;;14.31;8.33;;;;;;;;;;354708;150;857336;-64
2022/01/17 04:46:59;;;;;;;18.39;8.75;;;;;;;;;;354925;148;857654;-64
2022/01/17 04:48:01;;;;;;;14.36;7.14;;;;;;;;;;354091;148;857355;-64
2022/01/17 04:49:02;;;;;;;16.53;7.83;;;;;;;;;;354171;150;863388;-64
2022/01/17 04:50:05;;;;;;;13.96;7.18;;;;;;;;;;353212;148;866568;-64
2022/01/17 04:51:08;;;;;;;17.53;7.96;;;;;;;;;;355681;148;865014;-64
2022/01/17 04:52:13;;;;;;;18.58;9.04;;;;;;;;;;355553;148;858765;-64
2022/01/17 04:53:17;;;;;;;18.36;7.36;;;;;;;;;;353942;148;857292;-64
2022/01/17 04:55:38;;;;;;;21.02;9.38;;;;;;;;;;344703;153;864899;-65
2022/01/17 04:56:40;;;;;;;18.21;9.29;;;;;;;;;;345078;153;857709;-64
2022/01/17 04:57:42;;;;;;;16.35;8.80;;;;;;;;;;343566;154;858259;-65
2022/01/17 04:58:44;;;;;;;11.02;5.87;;;;;;;;;;345430;153;857288;-63
2022/01/17 04:59:46;;;;;;;17.16;8.46;;;;;;;;;;342721;153;857493;-63
2022/01/17 05:00:47;;;;;;;15.76;8.26;;;;;;;;;;343805;153;858521;-63
2022/01/17 05:01:49;;;;;;;12.89;6.99;;;;;;;;;;348854;148;868962;-63
2022/01/17 05:02:51;;;;;;;13.33;6.91;;;;;;;;;;354927;148;864982;-64
2022/01/17 05:03:52;;;;;;;14.49;7.05;;;;;;;;;;355480;148;865684;-63
2022/01/17 05:04:54;;;;;;;19.05;8.54;;;;;;;;;;356628;148;865069;-63
2022/01/17 05:05:56;;;;;;;15.65;7.34;;;;;;;;;;356044;148;865177;-63
2022/01/17 05:06:58;;;;;;;18.58;8.65;;;;;;;;;;355944;148;859027;-64
2022/01/17 05:07:59;;;;;;;15.62;7.61;;;;;;;;;;356057;148;868457;-64
2022/01/17 05:09:02;;;;;;;12.95;6.97;;;;;;;;;;355850;148;865141;-64
2022/01/17 05:10:04;;;;;;;18.17;8.61;;;;;;;;;;354314;148;864944;-64
2022/01/17 05:11:06;;;;;;;19.74;7.53;;;;;;;;;;353854;148;864989;-63
2022/01/17 05:12:08;;;;;;;19.41;8.25;;;;;;;;;;355709;147;859874;-64
2022/01/17 05:13:15;;;;;;;20.03;7.70;;;;;;;;;;354740;148;857214;-62
2022/01/17 05:14:14;;;;;;;15.83;8.57;;;;;;;;;;354951;150;857219;-63
2022/01/17 05:15:29;;;;;;;15.52;7.05;;;;;;;;;;355512;148;858714;-63
2022/01/17 05:16:36;;;;;;;17.52;8.04;;;;;;;;;;355385;148;858471;-63
2022/01/17 05:17:42;;;;;;;21.58;8.92;;;;;;;;;;352771;150;857326;-64
2022/01/17 05:19:53;;;;;;;17.36;6.80;;;;;;;;;;350539;150;865618;-64
2022/01/17 05:20:54;;;;;;;13.42;7.36;;;;;;;;;;348600;150;857389;-64
2022/01/17 05:22:00;;;;;;;18.39;8.09;;;;;;;;;;349785;150;857291;-63
2022/01/17 05:22:59;;;;;;;15.05;7.23;;;;;;;;;;342553;155;865962;-64
2022/01/17 05:24:00;;;;;;;20.29;9.62;;;;;;;;;;338038;154;864984;-64
2022/01/17 05:25:04;;;;;;;13.47;7.06;;;;;;;;;;338170;154;866473;-63
2022/01/17 05:26:06;;;;;;;23.22;9.04;;;;;;;;;;328949;161;865838;-63
2022/01/17 05:27:08;;;;;;;14.70;7.88;;;;;;;;;;327318;160;857372;-64
2022/01/17 05:28:10;;;;;;;22.01;8.91;;;;;;;;;;340062;155;857920;-63
2022/01/17 05:29:12;;;;;;;16.95;9.26;;;;;;;;;;329205;160;860836;-64
2022/01/17 05:30:15;;;;;;;14.68;6.51;;;;;;;;;;328587;158;859376;-64
2022/01/17 05:31:18;;;;;;;14.91;8.11;;;;;;;;;;335921;154;865025;-63
2022/01/17 05:32:20;;;;;;;18.64;9.53;;;;;;;;;;328689;160;857374;-64
2022/01/17 05:33:22;;;;;;;25.34;10.00;;;;;;;;;;328864;160;857382;-63
2022/01/17 05:34:24;;;;;;;12.38;6.55;;;;;;;;;;336509;154;866476;-63
2022/01/17 05:35:26;;;;;;;20.16;9.34;;;;;;;;;;337663;157;858494;-63
2022/01/17 05:36:28;;;;;;;19.91;9.72;;;;;;;;;;338016;157;864964;-63
2022/01/17 05:37:30;;;;;;;12.84;7.55;;;;;;;;;;338612;155;859603;-63
2022/01/17 05:38:31;;;;;;;11.14;6.56;;;;;;;;;;338797;155;862569;-63
2022/01/17 05:39:33;;;;;;;16.83;8.38;;;;;;;;;;338475;154;864999;-63
2022/01/17 05:40:35;;;;;;;24.85;9.99;;;;;;;;;;336549;154;864907;-63
2022/01/17 05:41:37;;;;;;;15.09;8.27;;;;;;;;;;339256;154;857333;-62
2022/01/17 05:42:39;;;;;;;17.20;8.62;;;;;;;;;;336426;154;858848;-62
2022/01/17 05:43:41;;;;;;;15.64;8.14;;;;;;;;;;338886;154;866376;-63
2022/01/17 05:44:42;;;;;;;17.64;9.32;;;;;;;;;;342697;154;860347;-63
2022/01/17 05:47:07;;;;;;;13.33;7.24;;;;;;;;;;348095;151;857138;-64
2022/01/17 05:48:09;;;;;;;20.28;8.89;;;;;;;;;;349898;152;859183;-63
2022/01/17 05:49:10;;;;;;;19.98;9.11;;;;;;;;;;348508;151;864802;-63
2022/01/17 05:50:13;;;;;;;20.08;10.18;;;;;;;;;;348044;152;858928;-63
2022/01/17 05:51:15;;;;;;;20.50;9.74;;;;;;;;;;348098;152;857123;-64
2022/01/17 05:52:16;;;;;;;13.80;6.94;;;;;;;;;;349780;151;859030;-63
2022/01/17 05:53:18;;;;;;;14.31;7.37;;;;;;;;;;348828;151;865981;-63
2022/01/17 05:54:19;;;;;;;18.97;9.36;;;;;;;;;;349038;151;867305;-63
2022/01/17 05:55:21;;;;;;;16.54;7.81;;;;;;;;;;350700;151;857389;-63
2022/01/17 05:56:23;;;;;;;21.39;9.64;;;;;;;;;;347309;152;865837;-63
2022/01/17 05:57:25;;;;;;;16.71;8.79;;;;;;;;;;345876;153;857410;-63
2022/01/17 05:58:26;;;;;;;17.52;7.50;;;;;;;;;;342609;156;865298;-64
2022/01/17 05:59:28;;;;;;;12.96;6.94;;;;;;;;;;345803;152;858180;-63
2022/01/17 06:00:30;;;;;;;17.06;8.11;;;;;;;;;;349440;150;865144;-62
2022/01/17 06:01:32;;;;;;;19.84;9.00;;;;;;;;;;351312;150;857142;-63
2022/01/17 06:02:34;;;;;;;20.25;9.11;;;;;;;;;;353147;149;864479;-63
2022/01/17 06:03:35;;;;;;;15.57;7.29;;;;;;;;;;346699;152;865008;-63
2022/01/17 06:04:37;;;;;;;17.23;9.15;;;;;;;;;;349526;151;866293;-64
2022/01/17 06:05:38;;;;;;;19.89;9.11;;;;;;;;;;347134;154;864970;-63
2022/01/17 06:06:40;;;;;;;14.99;7.27;;;;;;;;;;348724;151;866885;-63
2022/01/17 06:07:42;;;;;;;16.06;6.89;;;;;;;;;;352758;148;866356;-64
2022/01/17 06:08:43;;;;;;;18.72;8.51;;;;;;;;;;354601;149;864985;-63
2022/01/17 06:09:45;;;;;;;12.21;5.69;;;;;;;;;;352331;149;865140;-63
2022/01/17 06:10:47;;;;;;;15.73;8.04;;;;;;;;;;354151;150;857260;-64
2022/01/17 06:11:49;;;;;;;23.19;9.38;;;;;;;;;;354736;150;859502;-63
2022/01/17 06:12:50;;;;;;;24.04;10.86;;;;;;;;;;354354;149;864916;-63
2022/01/17 06:13:53;;;;;;;28.11;9.85;;;;;;;;;;348604;152;865381;-64
2022/01/17 06:14:54;;;;;;;17.32;9.17;;;;;;;;;;347727;152;859576;-63
2022/01/17 06:15:57;;;;;;;13.32;6.44;;;;;;;;;;354341;151;857918;-63
2022/01/17 06:16:59;;;;;;;14.89;8.39;;;;;;;;;;348597;151;857249;-63
2022/01/17 06:18:01;;;;;;;15.31;8.30;;;;;;;;;;342634;152;866413;-63
2022/01/17 06:19:03;;;;;;;18.64;9.64;;;;;;;;;;348374;152;859119;-63